Time;durP1;ratioP1;P1;durP2;ratioP2;P2;SDS_P1;SDS_P2;PMS_P1;PMS_P2;Temp;Humidity;BMP_temperature;BMP_pressure;BME280_temperature;BME280_humidity;BME280_pressure;Samples;Min_cycle;Max_cycle;Signal;HPM_P1;HPM_P2
2023/06/11 00:00:59;;;;;;;7.65;6.80;;;;;;;17.10;64.80;100150.53;10378392;28;20070;-72
2023/06/11 00:06:01;;;;;;;6.82;6.13;;;;;;;16.96;66.41;100149.63;10377684;28;20069;-72
2023/06/11 00:11:02;;;;;;;6.20;5.70;;;;;;;16.75;67.24;100151.66;10378891;28;20561;-72
2023/06/11 00:16:05;;;;;;;5.82;5.32;;;;;;;16.62;67.37;100148.78;10379056;28;20519;-71
2023/06/11 00:21:11;;;;;;;7.30;5.85;;;;;;;16.61;67.60;100155.91;10378175;28;20073;-72
2023/06/11 00:26:12;;;;;;;6.80;6.20;;;;;;;16.39;70.40;100164.16;10378090;28;20045;-73
2023/06/11 00:31:18;;;;;;;6.35;5.75;;;;;;;16.43;70.21;100159.56;10377239;28;20046;-71
2023/06/11 00:36:21;;;;;;;9.65;6.00;;;;;;;16.50;67.13;100163.56;10378038;28;20045;-73
2023/06/11 00:41:29;;;;;;;6.18;5.65;;;;;;;16.27;67.33;100158.66;10376231;28;20041;-71
2023/06/11 00:46:31;;;;;;;6.03;5.57;;;;;;;15.88;69.90;100165.94;10377233;28;20044;-71
2023/06/11 00:51:34;;;;;;;6.13;5.53;;;;;;;15.89;70.52;100166.81;10375945;28;20144;-71
2023/06/11 00:56:39;;;;;;;5.47;5.03;;;;;;;15.96;68.64;100165.56;10375009;28;20069;-72
2023/06/11 01:01:48;;;;;;;5.43;4.93;;;;;;;16.10;66.57;100170.16;10376600;28;20530;-72
2023/06/11 01:06:54;;;;;;;7.10;4.97;;;;;;;15.97;66.69;100177.88;10374974;28;20132;-72
2023/06/11 01:11:57;;;;;;;5.80;5.20;;;;;;;15.67;67.79;100177.69;10373859;28;20080;-72
2023/06/11 01:17:15;;;;;;;5.43;4.95;;;;;;;15.42;69.77;100172.69;10373984;28;20045;-72
2023/06/11 01:22:42;;;;;;;5.63;4.72;;;;;;;15.76;66.25;100171.91;10373928;28;20503;-72
2023/06/11 01:28:01;;;;;;;9.80;5.05;;;;;;;15.67;66.03;100169.72;10373675;28;20061;-72
2023/06/11 01:33:05;;;;;;;6.10;4.65;;;;;;;15.31;67.55;100177.66;10374149;28;20050;-72
2023/06/11 01:38:11;;;;;;;7.13;4.60;;;;;;;15.24;67.63;100182.41;10375394;28;20502;-72
2023/06/11 01:43:23;;;;;;;5.15;4.75;;;;;;;15.12;68.68;100189.16;10373805;28;20049;-72
2023/06/11 01:48:25;;;;;;;5.00;4.65;;;;;;;15.10;68.57;100191.03;10374956;28;20121;-72
2023/06/11 01:53:27;;;;;;;8.73;4.70;;;;;;;14.55;73.15;100179.50;10374687;28;20037;-72
2023/06/11 01:58:29;;;;;;;4.90;4.40;;;;;;;14.68;72.26;100185.09;10373480;28;20053;-72
2023/06/11 02:03:30;;;;;;;5.05;4.55;;;;;;;14.88;70.24;100188.53;10373923;28;20038;-72
2023/06/11 02:08:32;;;;;;;5.75;4.50;;;;;;;14.69;72.42;100195.59;10379910;28;20080;-72
2023/06/11 02:13:34;;;;;;;4.53;3.95;;;;;;;14.58;70.05;100193.44;10381274;28;20065;-73
2023/06/11 02:18:36;;;;;;;5.20;4.70;;;;;;;14.72;69.26;100194.59;10382699;28;20073;-72
2023/06/11 02:23:37;;;;;;;5.30;4.70;;;;;;;14.58;68.98;100182.88;10380134;28;20049;-72
2023/06/11 02:28:39;;;;;;;4.60;4.28;;;;;;;14.36;70.63;100182.09;10379806;28;20392;-72
2023/06/11 02:33:41;;;;;;;5.20;3.78;;;;;;;14.32;70.48;100194.59;10381519;28;20038;-72
2023/06/11 02:38:43;;;;;;;5.82;4.18;;;;;;;14.28;69.97;100189.50;10379758;28;20053;-73
2023/06/11 02:43:44;;;;;;;4.93;4.53;;;;;;;14.22;70.61;100187.16;10381322;28;20088;-73
2023/06/11 02:48:46;;;;;;;5.38;3.83;;;;;;;14.06;71.44;100193.09;10381243;28;20080;-72
2023/06/11 02:53:48;;;;;;;4.30;3.90;;;;;;;13.96;71.41;100197.06;10380367;28;20050;-73
2023/06/11 02:58:50;;;;;;;4.85;3.80;;;;;;;13.95;71.26;100197.16;10378842;28;20100;-72
2023/06/11 03:03:52;;;;;;;4.45;3.72;;;;;;;13.79;72.25;100203.06;10379084;28;20057;-72
2023/06/11 03:08:59;;;;;;;;;;;;;;;13.85;72.58;100204.59;10379471;28;20072;-72
2023/06/11 03:14:01;;;;;;;4.53;4.13;;;;;;;13.93;72.10;100199.84;10379100;28;19921;-72
2023/06/11 03:19:03;;;;;;;4.43;4.03;;;;;;;13.85;71.94;100199.31;10379389;28;20061;-72
2023/06/11 03:24:05;;;;;;;4.47;4.07;;;;;;;13.78;72.98;100211.06;10378826;28;20133;-72
2023/06/11 03:29:07;;;;;;;5.18;3.95;;;;;;;13.79;73.63;100210.13;10378918;28;20511;-73
2023/06/11 03:34:17;;;;;;;3.83;3.53;;;;;;;13.55;76.46;100223.44;10378701;28;20459;-72
2023/06/11 03:39:19;;;;;;;5.40;3.78;;;;;;;13.71;77.01;100223.66;10378888;28;20547;-72
2023/06/11 03:44:24;;;;;;;4.30;3.90;;;;;;;13.92;75.92;100213.97;10377536;28;20042;-72
2023/06/11 03:49:26;;;;;;;6.60;3.50;;;;;;;13.87;73.84;100216.81;10378202;28;20080;-72
2023/06/11 03:54:28;;;;;;;4.13;3.72;;;;;;;14.06;73.88;100221.31;10377041;28;20100;-72
2023/06/11 03:59:30;;;;;;;4.18;3.75;;;;;;;13.93;75.99;100220.97;10376941;28;20418;-72
2023/06/11 04:04:32;;;;;;;4.43;3.60;;;;;;;13.95;78.28;100219.16;10378758;28;20050;-72
2023/06/11 04:09:34;;;;;;;3.75;3.45;;;;;;;13.99;79.86;100226.03;10377468;28;20042;-72
2023/06/11 04:14:36;;;;;;;9.75;4.35;;;;;;;14.20;79.68;100233.94;10378256;28;20042;-72
2023/06/11 04:19:39;;;;;;;4.07;3.60;;;;;;;14.32;80.24;100238.69;10377739;28;20041;-72
2023/06/11 04:24:42;;;;;;;5.25;4.75;;;;;;;14.54;77.30;100244.78;10375751;28;20041;-73
2023/06/11 04:29:44;;;;;;;4.85;4.45;;;;;;;14.82;75.88;100238.22;10374798;28;20049;-73
2023/06/11 04:34:48;;;;;;;8.38;5.18;;;;;;;15.02;73.98;100247.91;10377429;28;20038;-72
2023/06/11 04:39:52;;;;;;;6.30;5.63;;;;;;;15.31;71.31;100241.22;10400879;23;20044;-74
2023/06/11 04:44:56;;;;;;;5.90;5.40;;;;;;;15.41;71.22;100245.16;10418094;28;20041;-74
2023/06/11 04:50:03;;;;;;;7.15;5.78;;;;;;;15.35;69.70;100243.63;10417393;28;20045;-74
2023/06/11 04:55:09;;;;;;;6.45;5.95;;;;;;;15.74;68.35;100239.16;10416667;28;20521;-73
2023/06/11 05:00:13;;;;;;;7.20;6.50;;;;;;;15.64;70.16;100247.56;10416105;28;20049;-73
2023/06/11 05:05:18;;;;;;;5.57;5.07;;;;;;;15.77;69.54;100241.66;10416833;28;20045;-73
2023/06/11 05:10:20;;;;;;;6.03;5.57;;;;;;;16.20;68.50;100248.28;10417047;28;20072;-73
2023/06/11 05:15:23;;;;;;;6.72;6.13;;;;;;;16.32;66.89;100246.78;10417523;28;20042;-73
2023/06/11 05:20:26;;;;;;;6.07;5.55;;;;;;;16.68;64.26;100248.44;10419119;28;20121;-73
2023/06/11 05:25:29;;;;;;;5.70;5.10;;;;;;;17.47;62.26;100254.69;10417018;28;20046;-74
2023/06/11 05:30:36;;;;;;;5.68;4.93;;;;;;;18.40;56.77;100251.91;10401050;28;20049;-72
2023/06/11 05:35:40;;;;;;;;;;;;;;;18.45;55.35;100259.59;10417545;28;20037;-72
2023/06/11 05:40:42;;;;;;;5.18;4.78;;;;;;;19.07;52.36;100265.53;10415804;28;19921;-73
2023/06/11 05:45:49;;;;;;;5.65;4.93;;;;;;;19.13;54.82;100262.50;10415324;28;20065;-72
2023/06/11 05:50:54;;;;;;;5.32;4.82;;;;;;;20.13;50.18;100262.16;10415635;28;20070;-73
2023/06/11 05:55:57;;;;;;;5.80;4.32;;;;;;;20.61;47.89;100270.44;10414962;28;20503;-72
2023/06/11 06:01:04;;;;;;;4.85;3.90;;;;;;;20.83;45.93;100275.16;10415987;28;20405;-72
2023/06/11 06:06:10;;;;;;;3.63;3.33;;;;;;;20.55;47.23;100276.22;10414873;28;20048;-72
2023/06/11 06:11:12;;;;;;;6.03;3.33;;;;;;;21.29;46.09;100279.88;10417007;28;20041;-73
2023/06/11 06:16:16;;;;;;;4.45;3.60;;;;;;;21.41;44.92;100278.16;10415382;28;20407;-74
2023/06/11 06:21:18;;;;;;;4.28;3.85;;;;;;;21.83;43.16;100284.00;10416745;28;20096;-75
2023/06/11 06:26:20;;;;;;;11.02;3.25;;;;;;;21.84;42.40;100289.22;10414768;28;20046;-75
2023/06/11 06:31:24;;;;;;;3.50;2.97;;;;;;;21.47;41.87;100291.09;10414770;28;20046;-75
2023/06/11 06:36:27;;;;;;;4.82;3.30;;;;;;;21.64;41.43;100284.50;10415842;28;20124;-75
2023/06/11 06:41:30;;;;;;;5.75;2.72;;;;;;;22.37;43.75;100287.00;10418913;28;20041;-75
2023/06/11 06:46:39;;;;;;;4.80;2.88;;;;;;;22.74;40.98;100286.81;10418672;28;20124;-75
2023/06/11 06:51:41;;;;;;;6.32;3.67;;;;;;;22.91;38.54;100286.38;10419213;28;20049;-75
2023/06/11 06:56:44;;;;;;;3.05;2.75;;;;;;;23.08;40.37;100287.72;10424711;28;20045;-75
2023/06/11 07:01:46;;;;;;;3.20;2.90;;;;;;;23.29;41.36;100295.03;10423663;28;20052;-75
2023/06/11 07:06:48;;;;;;;4.38;3.67;;;;;;;23.81;37.27;100288.09;10407083;28;20064;-75
2023/06/11 07:11:52;;;;;;;3.38;2.72;;;;;;;23.93;38.41;100297.81;10423429;28;20536;-76
2023/06/11 07:16:54;;;;;;;3.17;2.88;;;;;;;24.57;36.30;100294.22;10423095;28;20060;-74
2023/06/11 07:21:56;;;;;;;4.80;2.92;;;;;;;24.42;36.37;100291.03;10422454;28;20053;-74
2023/06/11 07:26:58;;;;;;;3.72;3.15;;;;;;;24.86;35.83;100300.63;10422205;28;20037;-74
2023/06/11 07:32:01;;;;;;;5.65;3.45;;;;;;;24.23;38.35;100302.47;10420968;28;20045;-74
2023/06/11 07:37:03;;;;;;;4.18;3.55;;;;;;;24.32;37.63;100295.47;10443993;28;20041;-74
2023/06/11 07:42:05;;;;;;;3.90;2.75;;;;;;;24.34;39.07;100296.16;10451363;28;20557;-74
2023/06/11 07:47:07;;;;;;;4.65;3.10;;;;;;;24.72;38.78;100295.59;10420164;28;20045;-74
2023/06/11 07:52:09;;;;;;;5.13;3.15;;;;;;;24.85;38.40;100295.38;10418538;28;20045;-74
2023/06/11 07:57:15;;;;;;;4.20;2.73;;;;;;;25.34;38.00;100293.75;10421841;28;20091;-74
2023/06/11 08:02:17;;;;;;;3.78;3.38;;;;;;;25.44;38.16;100289.25;10460421;28;20469;-73
2023/06/11 08:07:19;;;;;;;4.75;2.88;;;;;;;25.90;37.02;100283.28;10459752;28;20520;-73
2023/06/11 08:12:21;;;;;;;5.55;3.15;;;;;;;25.14;39.02;100274.00;10460513;28;20049;-73
2023/06/11 08:17:23;;;;;;;4.60;2.85;;;;;;;25.23;39.38;100273.19;10460694;28;20037;-73
2023/06/11 08:22:25;;;;;;;4.15;2.88;;;;;;;25.72;38.63;100268.78;10453364;28;20064;-73
2023/06/11 08:27:26;;;;;;;4.82;3.00;;;;;;;26.19;37.62;100262.69;10440927;28;20076;-72
2023/06/11 08:32:28;;;;;;;4.22;3.33;;;;;;;26.49;37.81;100267.94;10435023;28;20081;-74
2023/06/11 08:37:30;;;;;;;3.80;3.45;;;;;;;26.75;37.45;100270.00;10418075;28;20124;-73
2023/06/11 08:42:32;;;;;;;3.03;2.83;;;;;;;26.71;37.38;100260.50;10452524;28;20051;-72
2023/06/11 08:47:40;;;;;;;3.40;3.10;;;;;;;26.73;39.35;100245.84;10459084;28;20513;-72
2023/06/11 08:52:43;;;;;;;4.25;3.22;;;;;;;26.82;38.60;100246.81;10459709;28;20449;-72
2023/06/11 08:57:46;;;;;;;3.38;3.05;;;;;;;27.05;37.12;100245.44;10438312;28;20495;-73
2023/06/11 09:02:51;;;;;;;2.95;2.75;;;;;;;26.89;37.15;100242.53;10417162;28;20077;-72
2023/06/11 09:07:53;;;;;;;2.85;2.65;;;;;;;27.20;36.92;100237.72;10416687;28;20037;-72
2023/06/11 09:12:55;;;;;;;2.95;2.60;;;;;;;28.16;36.98;100230.75;10417228;28;20046;-72
2023/06/11 09:18:00;;;;;;;4.15;2.92;;;;;;;28.21;34.79;100232.97;10417945;28;20073;-71
2023/06/11 09:23:02;;;;;;;3.42;2.83;;;;;;;27.24;34.10;100235.56;10418067;28;20041;-72
2023/06/11 09:28:07;;;;;;;3.17;2.83;;;;;;;26.06;35.84;100227.97;10417170;28;20454;-72
2023/06/11 09:33:17;;;;;;;4.03;2.83;;;;;;;25.88;35.94;100238.59;10447848;28;20045;-73
2023/06/11 09:38:20;;;;;;;2.70;2.50;;;;;;;26.56;35.22;100225.91;10457906;28;20043;-72
2023/06/11 09:43:23;;;;;;;3.38;3.17;;;;;;;27.01;35.99;100233.25;10456364;28;20045;-73
2023/06/11 09:48:25;;;;;;;3.03;2.38;;;;;;;26.37;33.43;100236.69;10458200;28;20383;-73
2023/06/11 09:53:28;;;;;;;3.60;2.85;;;;;;;26.31;32.80;100234.59;10457777;28;20053;-72
2023/06/11 09:58:33;;;;;;;3.65;2.60;;;;;;;27.15;34.59;100234.63;10456051;28;20106;-71
2023/06/11 10:03:35;;;;;;;3.63;2.50;;;;;;;26.08;34.82;100237.63;10458719;28;20063;-72
2023/06/11 10:08:37;;;;;;;3.13;2.58;;;;;;;26.05;32.62;100235.19;10457928;28;20048;-72
2023/06/11 10:13:40;;;;;;;2.92;2.55;;;;;;;25.75;35.93;100233.47;10457189;28;20037;-71
2023/06/11 10:18:42;;;;;;;3.10;2.80;;;;;;;25.52;38.60;100234.75;10457055;28;20045;-72
2023/06/11 10:23:51;;;;;;;2.88;2.58;;;;;;;26.37;37.32;100245.63;10457305;28;20033;-73
2023/06/11 10:28:54;;;;;;;4.10;2.67;;;;;;;25.84;37.86;100237.19;10461181;28;20102;-73
2023/06/11 10:34:03;;;;;;;3.80;3.15;;;;;;;25.51;40.06;100241.13;10425928;28;20064;-73
2023/06/11 10:39:20;;;;;;;4.05;2.78;;;;;;;25.37;40.13;100235.16;10423105;28;20505;-73
2023/06/11 10:44:23;;;;;;;3.25;2.92;;;;;;;26.27;37.30;100227.81;10434534;22;20049;-68
2023/06/11 10:49:27;;;;;;;2.78;2.58;;;;;;;27.40;36.28;100235.72;10421951;28;20042;-69
2023/06/11 10:54:33;;;;;;;3.30;2.95;;;;;;;27.33;37.20;100238.22;10421373;28;20418;-70
2023/06/11 10:59:37;;;;;;;4.68;2.33;;;;;;;27.60;34.95;100245.41;10421282;28;20041;-70
2023/06/11 11:04:51;;;;;;;4.63;2.42;;;;;;;28.26;35.19;100244.16;10441746;28;20551;-70
2023/06/11 11:09:55;;;;;;;4.05;2.42;;;;;;;27.08;36.19;100238.88;10455215;28;20399;-69
2023/06/11 11:14:59;;;;;;;4.13;2.95;;;;;;;26.55;36.78;100242.22;10418921;28;20041;-70
2023/06/11 11:20:00;;;;;;;4.00;2.47;;;;;;;27.39;35.65;100228.66;10440556;28;20144;-71
2023/06/11 11:25:04;;;;;;;3.25;2.08;;;;;;;27.90;34.95;100236.09;10462923;28;20387;-70
2023/06/11 11:30:07;;;;;;;3.42;2.80;;;;;;;27.48;34.87;100227.72;10448281;28;20045;-70
2023/06/11 11:35:12;;;;;;;3.20;2.45;;;;;;;27.70;34.66;100237.22;10423042;28;20032;-71
2023/06/11 11:40:18;;;;;;;6.03;2.23;;;;;;;28.22;32.46;100231.97;10434531;28;20046;-69
2023/06/11 11:45:23;;;;;;;5.35;2.55;;;;;;;27.59;34.13;100232.06;10419552;28;20045;-70
2023/06/11 11:50:27;;;;;;;2.42;2.22;;;;;;;27.63;33.04;100238.88;10430099;28;20110;-68
2023/06/11 11:55:33;;;;;;;3.08;2.78;;;;;;;26.74;34.51;100222.41;10460887;28;20120;-72
2023/06/11 12:00:37;;;;;;;3.47;2.97;;;;;;;27.39;34.29;100221.38;10459578;28;20090;-72
2023/06/11 12:05:39;;;;;;;2.95;2.65;;;;;;;26.83;33.42;100219.72;10415442;28;20136;-72
2023/06/11 12:10:41;;;;;;;2.88;2.40;;;;;;;26.76;33.55;100220.44;10416650;28;20096;-72
2023/06/11 12:15:42;;;;;;;4.53;2.97;;;;;;;25.96;34.85;100221.75;10418311;28;20460;-71
2023/06/11 12:20:44;;;;;;;3.20;2.90;;;;;;;25.98;33.84;100208.97;10418532;28;20041;-71
2023/06/11 12:25:47;;;;;;;3.20;2.90;;;;;;;27.03;31.95;100215.06;10418413;28;20041;-71
2023/06/11 12:30:49;;;;;;;3.67;3.08;;;;;;;27.54;30.80;100218.19;10418518;28;20058;-71
2023/06/11 12:35:50;;;;;;;3.75;3.05;;;;;;;28.39;31.89;100211.34;10417974;28;20549;-71
2023/06/11 12:40:52;;;;;;;2.70;2.50;;;;;;;28.61;29.50;100207.25;10424867;28;20047;-71
2023/06/11 12:45:54;;;;;;;3.03;2.83;;;;;;;28.91;28.86;100203.16;10430934;28;20502;-69
2023/06/11 12:50:56;;;;;;;3.40;3.10;;;;;;;28.93;30.99;100184.91;10448583;28;20037;-69
2023/06/11 12:55:58;;;;;;;3.45;3.25;;;;;;;28.36;30.05;100204.38;10451781;28;20072;-71
2023/06/11 13:01:00;;;;;;;3.47;3.17;;;;;;;27.73;31.27;100203.72;10416577;28;20069;-71
2023/06/11 13:06:01;;;;;;;3.90;2.95;;;;;;;26.86;31.21;100192.41;10444280;28;20033;-70
2023/06/11 13:11:03;;;;;;;3.63;3.33;;;;;;;27.00;29.97;100184.81;10417001;28;20056;-71
2023/06/11 13:16:06;;;;;;;3.03;2.83;;;;;;;27.42;30.41;100190.56;10416179;28;20037;-71
2023/06/11 13:21:08;;;;;;;3.55;3.25;;;;;;;28.06;31.18;100192.16;10415886;28;20076;-71
2023/06/11 13:26:11;;;;;;;4.25;3.25;;;;;;;27.61;29.62;100190.41;10415859;28;20030;-70
2023/06/11 13:37:23;;;;;;;3.33;3.03;;;;;;;28.08;32.28;100190.16;10309799;28;20460;-69
2023/06/11 13:42:25;;;;;;;3.53;3.22;;;;;;;28.68;28.70;100175.81;10311043;28;20421;-69
2023/06/11 13:47:27;;;;;;;3.60;3.30;;;;;;;28.28;29.51;100185.38;10320175;28;20046;-69
2023/06/11 13:52:29;;;;;;;4.40;3.50;;;;;;;28.21;29.38;100191.59;10329462;28;20062;-69
2023/06/11 13:57:31;;;;;;;3.30;3.10;;;;;;;28.18;30.40;100181.94;10329777;28;20492;-69
2023/06/11 14:02:32;;;;;;;4.00;3.70;;;;;;;27.92;28.14;100187.31;10332728;28;20096;-70
2023/06/11 14:07:35;;;;;;;3.90;3.60;;;;;;;27.54;28.75;100183.94;10337422;28;20097;-69
2023/06/11 14:12:37;;;;;;;3.30;3.10;;;;;;;27.69;30.70;100184.22;10434501;28;20061;-69
2023/06/11 14:17:42;;;;;;;4.00;3.70;;;;;;;27.34;28.25;100187.78;10464528;28;20549;-69
2023/06/11 14:22:45;;;;;;;3.35;2.88;;;;;;;27.31;27.74;100183.50;10464891;28;20052;-69
2023/06/11 14:27:47;;;;;;;3.88;3.50;;;;;;;27.60;28.84;100188.69;10464461;28;20041;-70
2023/06/11 14:32:49;;;;;;;4.00;3.70;;;;;;;27.76;27.41;100174.53;10465621;28;20128;-69
2023/06/11 14:37:50;;;;;;;3.45;3.20;;;;;;;27.77;29.27;100169.97;10446507;28;20045;-69
2023/06/11 14:42:56;;;;;;;3.97;3.58;;;;;;;27.80;27.88;100177.75;10464256;28;20529;-69
2023/06/11 14:47:57;;;;;;;4.03;3.72;;;;;;;28.05;26.84;100168.84;10462575;28;20072;-70
2023/06/11 14:52:59;;;;;;;3.45;3.15;;;;;;;28.21;28.49;100168.13;10463871;28;20046;-69
2023/06/11 14:58:01;;;;;;;3.50;3.20;;;;;;;28.55;27.37;100154.63;10463417;28;20456;-69
2023/06/11 15:03:03;;;;;;;4.93;3.88;;;;;;;28.46;28.49;100150.19;10462142;28;20471;-70
2023/06/11 15:08:05;;;;;;;3.28;3.00;;;;;;;28.83;28.18;100151.72;10462475;28;20045;-69
2023/06/11 15:13:07;;;;;;;3.40;3.20;;;;;;;28.13;28.81;100157.25;10461792;28;20041;-69
2023/06/11 15:18:08;;;;;;;3.90;3.60;;;;;;;27.69;30.14;100150.97;10462183;28;20067;-70
2023/06/11 15:23:11;;;;;;;4.35;3.75;;;;;;;28.01;28.85;100153.94;10462449;28;20128;-69
2023/06/11 15:28:12;;;;;;;9.65;8.82;;;;;;;28.27;29.13;100148.53;10463500;28;20041;-69
2023/06/11 15:33:14;;;;;;;4.78;4.47;;;;;;;27.91;30.59;100137.00;10462226;28;20124;-69
2023/06/11 15:38:16;;;;;;;9.65;8.85;;;;;;;28.45;30.08;100142.25;10463366;28;20037;-69
2023/06/11 15:43:18;;;;;;;5.65;5.25;;;;;;;28.70;30.28;100129.69;10460794;28;20049;-70
2023/06/11 15:48:21;;;;;;;3.97;3.63;;;;;;;28.67;28.40;100133.56;10460249;28;20049;-70
2023/06/11 15:53:23;;;;;;;3.47;3.17;;;;;;;28.38;28.57;100123.97;10461964;28;20053;-70
2023/06/11 15:58:24;;;;;;;3.45;3.15;;;;;;;28.06;29.23;100123.75;10461177;28;20112;-70
2023/06/11 16:03:26;;;;;;;4.05;3.65;;;;;;;27.43;30.49;100135.56;10461281;28;20124;-70
2023/06/11 16:08:28;;;;;;;3.53;3.28;;;;;;;27.37;31.13;100128.94;10461234;28;20079;-70
2023/06/11 16:13:33;;;;;;;3.67;3.38;;;;;;;27.22;31.27;100121.53;10461726;28;20402;-69
2023/06/11 16:18:35;;;;;;;3.65;3.35;;;;;;;27.09;32.03;100120.06;10460789;28;20044;-71
2023/06/11 16:23:36;;;;;;;3.83;3.53;;;;;;;26.80;32.84;100117.50;10461062;28;20047;-71
2023/06/11 16:28:38;;;;;;;5.45;3.70;;;;;;;26.71;33.29;100107.63;10460368;28;20041;-69
2023/06/11 16:33:40;;;;;;;3.80;3.60;;;;;;;26.38;33.04;100112.56;10460164;28;20048;-69
2023/06/11 16:38:58;;;;;;;4.60;4.22;;;;;;;26.39;34.25;100122.38;10460542;28;20526;-69
2023/06/11 16:44:17;;;;;;;4.43;4.03;;;;;;;26.16;34.33;100115.63;10440761;22;20136;-69
2023/06/11 16:49:19;;;;;;;4.13;3.83;;;;;;;25.73;34.96;100121.53;10419235;28;20457;-69
2023/06/11 16:54:21;;;;;;;4.50;4.10;;;;;;;25.72;35.30;100106.34;10419667;28;20049;-68
2023/06/11 16:59:23;;;;;;;4.13;3.80;;;;;;;25.65;35.54;100111.50;10416703;28;19991;-68
2023/06/11 17:04:25;;;;;;;4.00;3.60;;;;;;;25.60;35.96;100111.06;10417103;28;20510;-70
2023/06/11 17:09:27;;;;;;;3.88;3.58;;;;;;;25.60;36.19;100111.06;10418985;28;20045;-69
2023/06/11 17:14:29;;;;;;;4.63;4.20;;;;;;;25.41;35.92;100104.72;10417720;28;20108;-69
2023/06/11 17:19:31;;;;;;;4.25;3.80;;;;;;;25.23;36.87;100113.63;10419114;28;20046;-70
2023/06/11 17:24:33;;;;;;;4.95;4.40;;;;;;;25.22;37.17;100117.31;10419435;28;20049;-69
2023/06/11 17:29:35;;;;;;;4.47;3.92;;;;;;;25.04;36.71;100115.25;10418898;28;20530;-69
2023/06/11 17:34:36;;;;;;;6.85;4.35;;;;;;;24.94;36.59;100118.94;10400141;28;20099;-70
2023/06/11 17:39:41;;;;;;;5.32;4.15;;;;;;;24.76;37.08;100116.06;10416058;28;20049;-69
2023/06/11 17:44:43;;;;;;;4.40;4.00;;;;;;;24.68;36.90;100114.06;10418082;28;20048;-69
2023/06/11 17:49:45;;;;;;;4.05;3.83;;;;;;;24.57;37.63;100106.97;10417911;28;20524;-70
2023/06/11 17:54:50;;;;;;;3.67;3.47;;;;;;;24.70;37.19;100109.38;10416676;28;20041;-70
2023/06/11 17:59:52;;;;;;;4.10;3.80;;;;;;;24.52;38.68;100103.81;10418320;28;20402;-69
2023/06/11 18:04:54;;;;;;;8.45;3.88;;;;;;;24.53;37.29;100110.91;10417580;28;20091;-70
2023/06/11 18:09:56;;;;;;;4.75;4.20;;;;;;;24.38;38.36;100112.25;10417388;28;20037;-70
2023/06/11 18:14:58;;;;;;;4.25;3.70;;;;;;;24.38;36.78;100115.78;10418260;28;20398;-70
2023/06/11 18:20:00;;;;;;;5.00;3.70;;;;;;;24.26;37.22;100118.66;10417547;28;20132;-69
2023/06/11 18:25:02;;;;;;;3.90;3.47;;;;;;;23.98;37.74;100115.72;10417053;28;20091;-70
2023/06/11 18:30:05;;;;;;;3.97;3.38;;;;;;;23.98;38.11;100117.53;10416116;28;20049;-70
2023/06/11 18:35:08;;;;;;;3.92;3.55;;;;;;;23.83;38.50;100111.66;10417674;28;20069;-69
2023/06/11 18:40:10;;;;;;;3.60;3.30;;;;;;;23.79;38.16;100123.66;10416366;28;20414;-70
2023/06/11 18:45:12;;;;;;;4.35;3.53;;;;;;;23.70;38.05;100119.06;10414024;28;20042;-69
2023/06/11 18:50:14;;;;;;;3.28;2.95;;;;;;;23.60;38.41;100116.28;10420258;28;20069;-70
2023/06/11 18:55:19;;;;;;;4.03;3.38;;;;;;;23.46;39.10;100119.28;10424409;28;20445;-69
2023/06/11 19:00:21;;;;;;;4.90;3.30;;;;;;;23.24;38.62;100126.44;10424464;28;20410;-70
2023/06/11 19:05:23;;;;;;;4.68;3.38;;;;;;;23.20;38.75;100134.84;10421007;28;20034;-71
2023/06/11 19:10:24;;;;;;;3.67;3.38;;;;;;;23.13;38.76;100140.72;10423354;28;20073;-70
2023/06/11 19:15:26;;;;;;;3.58;3.30;;;;;;;22.95;38.49;100139.56;10421462;28;20041;-70
2023/06/11 19:20:28;;;;;;;3.83;3.53;;;;;;;22.72;39.33;100140.56;10424552;28;20044;-70
2023/06/11 19:25:33;;;;;;;4.25;3.63;;;;;;;22.81;38.70;100135.31;10421475;28;20095;-71
2023/06/11 19:30:35;;;;;;;3.30;3.10;;;;;;;22.67;38.92;100146.28;10421538;28;20047;-70
2023/06/11 19:35:37;;;;;;;4.47;3.33;;;;;;;22.43;39.23;100154.44;10421261;28;20037;-69
2023/06/11 19:40:39;;;;;;;4.97;3.25;;;;;;;22.49;39.25;100156.66;10421173;28;20126;-70
2023/06/11 19:45:41;;;;;;;3.42;2.97;;;;;;;22.46;39.50;100164.06;10422759;28;20096;-70
2023/06/11 19:50:42;;;;;;;3.50;3.20;;;;;;;22.27;40.03;100164.66;10422117;28;20033;-69
2023/06/11 19:55:45;;;;;;;4.93;3.75;;;;;;;22.11;40.21;100168.50;10423993;28;20076;-69
2023/06/11 20:00:47;;;;;;;3.33;2.90;;;;;;;21.92;40.24;100163.72;10421404;28;20042;-69
2023/06/11 20:05:49;;;;;;;3.70;3.33;;;;;;;21.77;40.86;100172.06;10422437;28;20037;-70
2023/06/11 20:10:58;;;;;;;4.57;3.47;;;;;;;21.67;41.20;100179.94;10419338;28;20060;-70
2023/06/11 20:16:00;;;;;;;4.03;3.63;;;;;;;21.41;42.31;100184.56;10420891;28;20083;-70
2023/06/11 20:21:02;;;;;;;4.20;3.90;;;;;;;21.30;43.25;100188.00;10420089;28;20107;-70
2023/06/11 20:26:05;;;;;;;5.93;4.38;;;;;;;21.03;43.74;100190.00;10419161;28;20041;-70
2023/06/11 20:31:07;;;;;;;4.35;3.95;;;;;;;20.86;44.67;100197.47;10417807;28;20049;-70
2023/06/11 20:36:08;;;;;;;4.63;4.15;;;;;;;20.87;45.40;100200.97;10419412;28;20049;-72
2023/06/11 20:41:10;;;;;;;4.88;3.95;;;;;;;20.64;48.11;100208.81;10420695;28;20045;-70
2023/06/11 20:46:12;;;;;;;4.70;4.05;;;;;;;20.23;48.49;100216.16;10422172;28;20405;-71
2023/06/11 20:51:29;;;;;;;4.93;4.13;;;;;;;20.27;49.92;100221.16;10421783;28;20072;-71
2023/06/11 20:56:31;;;;;;;4.57;4.20;;;;;;;20.03;50.84;100217.53;10401223;28;20045;-71
2023/06/11 21:01:33;;;;;;;4.50;4.10;;;;;;;19.73;51.35;100215.09;10419585;28;20128;-71
2023/06/11 21:06:39;;;;;;;4.72;4.32;;;;;;;19.86;52.24;100205.31;10417469;28;20044;-71
2023/06/11 21:11:41;;;;;;;4.43;4.13;;;;;;;19.63;52.75;100201.53;10418434;28;20046;-70
2023/06/11 21:16:43;;;;;;;4.45;4.05;;;;;;;19.39;53.45;100214.66;10415849;28;20399;-69
2023/06/11 21:21:45;;;;;;;5.20;4.75;;;;;;;19.16;53.74;100208.13;10416596;28;20033;-69
2023/06/11 21:26:47;;;;;;;4.85;4.40;;;;;;;19.00;54.32;100213.59;10416816;28;20143;-70
2023/06/11 21:31:49;;;;;;;5.90;4.05;;;;;;;18.88;53.90;100214.38;10417556;28;20051;-70
2023/06/11 21:36:51;;;;;;;4.35;3.90;;;;;;;18.94;52.93;100213.97;10415837;28;20141;-70
2023/06/11 21:41:53;;;;;;;4.13;3.83;;;;;;;18.95;52.96;100215.72;10414887;28;20057;-70
2023/06/11 21:46:54;;;;;;;4.22;3.70;;;;;;;18.83;53.10;100225.31;10415289;28;20049;-70
2023/06/11 21:52:01;;;;;;;3.80;3.50;;;;;;;18.55;54.31;100220.84;10414210;28;20466;-70
2023/06/11 21:57:03;;;;;;;4.03;3.53;;;;;;;18.37;53.99;100220.16;10416060;28;20042;-70
2023/06/11 22:02:06;;;;;;;3.78;3.53;;;;;;;18.17;54.40;100209.03;10415336;28;20059;-69
2023/06/11 22:07:09;;;;;;;5.20;3.97;;;;;;;18.10;55.24;100211.19;10414513;28;20044;-71
2023/06/11 22:12:11;;;;;;;4.00;3.58;;;;;;;18.15;55.33;100209.97;10415033;28;20100;-71
2023/06/11 22:17:13;;;;;;;4.43;3.63;;;;;;;18.23;56.90;100214.81;10416367;28;20042;-70
2023/06/11 22:22:15;;;;;;;3.97;3.55;;;;;;;18.10;58.27;100217.34;10413428;28;20037;-71
2023/06/11 22:27:18;;;;;;;3.88;3.58;;;;;;;17.99;58.69;100214.50;10421991;28;20112;-71
2023/06/11 22:32:20;;;;;;;4.22;3.90;;;;;;;17.97;59.53;100212.84;10423368;28;20076;-70
2023/06/11 22:37:22;;;;;;;4.20;3.70;;;;;;;17.79;59.09;100222.78;10423970;28;20045;-70
2023/06/11 22:42:24;;;;;;;4.38;3.97;;;;;;;17.53;59.33;100225.13;10436629;22;20133;-72
2023/06/11 22:47:27;;;;;;;4.75;3.85;;;;;;;17.35;59.81;100223.50;10422775;28;20056;-72
2023/06/11 22:52:38;;;;;;;4.32;3.92;;;;;;;17.24;58.79;100223.28;10421676;28;20494;-72
2023/06/11 22:57:39;;;;;;;4.05;3.58;;;;;;;17.07;59.45;100221.56;10422667;28;20045;-72
2023/06/11 23:02:41;;;;;;;4.70;3.45;;;;;;;16.96;60.03;100229.28;10421044;28;20056;-72
2023/06/11 23:07:46;;;;;;;5.95;4.05;;;;;;;16.87;60.36;100231.50;10422998;28;20041;-71
2023/06/11 23:12:48;;;;;;;4.05;3.65;;;;;;;16.95;58.13;100231.03;10422012;28;20045;-71
2023/06/11 23:17:53;;;;;;;3.90;3.30;;;;;;;16.65;59.11;100223.78;10421318;28;20467;-72